Pointe-Lebel, Canada
Current Conditions -  °F | °C
As of 11:00 PM on Wednesday 26 Nov 2014 (Local Time) from CYBC Reporting Station
Overcast Overcast  
Wind Chill: -10°   Ceiling: 13000
Heat Index: -4°   Visibility: 9mi
Dew Point: -10°   Wind: 12mph
Humidity: 64%   Direction: 20°NNE
Pressure: 30.17"   Gusts: 17mph
Location:  49.15°N, 68.2°W
Report Text: CYBC 270400Z AUTO 02010G15KT 9SM OVC130 M04/M10 A3017 RMK SLP219
Loading
Personal Weather Stations






























Interactive Weather Map New forecast layout! Learn more

10-Day Weather Forecast

Advertisements
Track Severe Weather on mobile